Time;durP1;ratioP1;P1;durP2;ratioP2;P2;SDS_P1;SDS_P2;PMS_P1;PMS_P2;Temp;Humidity;BMP_temperature;BMP_pressure;BME280_temperature;BME280_humidity;BME280_pressure;Samples;Min_cycle;Max_cycle;Signal;HPM_P1;HPM_P2
2022/11/23 00:02:24;;;;;;;;;;;3.10;99.90;;;;;;5092621;28;20327;-73
2022/11/23 00:04:50;;;;;;;;;;;3.20;99.90;;;;;;5092600;28;19963;-73
2022/11/23 00:07:15;;;;;;;;;;;3.20;99.90;;;;;;5092740;28;19940;-73
2022/11/23 00:09:41;;;;;;;;;;;3.30;99.90;;;;;;5092105;28;19912;-72
2022/11/23 00:12:07;;;;;;;;;;;3.40;99.90;;;;;;5092683;28;19908;-73
2022/11/23 00:14:32;;;;;;;;;;;3.50;99.90;;;;;;5092144;28;20365;-75
2022/11/23 00:16:58;;;;;;;;;;;3.50;99.90;;;;;;5092328;28;19960;-75
2022/11/23 00:19:23;;;;;;;;;;;3.60;99.90;;;;;;5092650;28;19939;-75
2022/11/23 00:21:49;;;;;;;;;;;3.70;99.90;;;;;;5092479;28;19908;-75
2022/11/23 00:24:14;;;;;;;;;;;3.80;99.90;;;;;;5092641;28;19908;-75
2022/11/23 00:26:40;;;;;;;;;;;4.00;99.90;;;;;;5092106;28;19908;-75
2022/11/23 00:29:05;;;;;;;;;;;4.10;99.90;;;;;;5092554;28;19961;-75
2022/11/23 00:31:31;;;;;;;;;;;4.20;99.90;;;;;;5092231;28;19909;-75
2022/11/23 00:33:57;;;;;;;;;;;4.20;99.90;;;;;;5092357;28;19955;-75
2022/11/23 00:36:23;;;;;;;;;;;4.40;99.90;;;;;;5092330;28;19961;-75
2022/11/23 00:38:49;;;;;;;;;;;4.50;99.90;;;;;;5091617;28;20322;-75
2022/11/23 00:41:16;;;;;;;;;;;4.60;99.90;;;;;;5092514;28;19909;-75
2022/11/23 00:43:41;;;;;;;;;;;4.70;99.90;;;;;;5094369;28;19909;-75
2022/11/23 00:46:17;;;;;;;;;;;4.80;99.90;;;;;;5095871;28;20322;-75
2022/11/23 00:48:43;;;;;;;;;;;4.90;99.90;;;;;;5095301;28;19908;-75
2022/11/23 00:51:10;;;;;;;;;;;5.00;99.90;;;;;;5095939;28;19998;-75
2022/11/23 00:53:36;;;;;;;;;;;5.30;99.90;;;;;;5095395;28;19998;-75
2022/11/23 00:56:02;;;;;;;;;;;5.30;99.90;;;;;;5095188;28;20345;-75
2022/11/23 00:58:28;;;;;;;;;;;5.50;99.90;;;;;;5095424;28;20284;-75
2022/11/23 01:01:06;;;;;;;;;;;5.60;99.90;;;;;;5095585;28;19908;-75
2022/11/23 01:03:31;;;;;;;;;;;5.70;99.90;;;;;;5095263;28;20297;-75
2022/11/23 01:06:04;;;;;;;;;;;5.80;99.90;;;;;;5077338;28;19916;-75
2022/11/23 01:08:30;;;;;;;;;;;5.90;99.90;;;;;;5095226;28;19908;-74
2022/11/23 01:10:59;;;;;;;;;;;6.00;99.90;;;;;;5095247;28;20342;-74
2022/11/23 01:13:25;;;;;;;;;;;6.10;99.90;;;;;;5095386;28;20369;-74
2022/11/23 01:15:50;;;;;;;;;;;6.20;99.90;;;;;;5095012;28;19916;-74
2022/11/23 01:18:16;;;;;;;;;;;6.50;99.90;;;;;;5095918;28;19912;-74
2022/11/23 01:20:41;;;;;;;;;;;6.50;99.90;;;;;;5094935;28;19915;-75
2022/11/23 01:23:07;;;;;;;;;;;6.70;99.90;;;;;;5095834;28;19958;-75
2022/11/23 01:25:34;;;;;;;;;;;6.80;99.90;;;;;;5094853;28;19908;-75
2022/11/23 01:28:00;;;;;;;;;;;6.80;99.90;;;;;;5095157;28;20353;-75
2022/11/23 01:30:25;;;;;;;;;;;6.90;99.90;;;;;;5095146;28;19908;-75
2022/11/23 01:32:51;;;;;;;;;;;6.90;99.90;;;;;;5094817;28;20379;-75
2022/11/23 01:35:16;;;;;;;;;;;7.00;99.90;;;;;;5095095;28;19920;-75
2022/11/23 01:37:42;;;;;;;;;;;7.10;99.90;;;;;;5094620;28;19908;-74
2022/11/23 01:40:08;;;;;;;;;;;7.20;99.90;;;;;;5095188;28;19908;-74
2022/11/23 01:42:38;;;;;;;;;;;7.20;99.90;;;;;;5094959;28;20346;-74
2022/11/23 01:45:22;;;;;;;;;;;7.30;99.90;;;;;;5094999;28;19916;-74
2022/11/23 01:47:48;;;;;;;;;;;7.30;99.90;;;;;;5094330;28;20277;-74
2022/11/23 01:50:13;;;;;;;;;;;7.40;99.90;;;;;;5095024;28;19908;-75
2022/11/23 01:52:39;;;;;;;;;;;7.40;99.90;;;;;;5094330;28;20354;-74
2022/11/23 01:55:05;;;;;;;;;;;7.40;99.90;;;;;;5075867;28;20353;-75
2022/11/23 01:57:34;;;;;;;;;;;7.50;99.90;;;;;;5110260;28;19908;-75
2022/11/23 02:00:00;;;;;;;;;;;7.50;99.90;;;;;;5094997;28;19994;-75
2022/11/23 02:02:27;;;;;;;;;;;7.60;99.90;;;;;;5094475;28;19954;-75
2022/11/23 02:04:52;;;;;;;;;;;7.70;99.90;;;;;;5094117;28;19905;-75
2022/11/23 02:07:19;;;;;;;;;;;7.70;99.90;;;;;;5094579;28;19908;-75
2022/11/23 02:09:45;;;;;;;;;;;7.80;99.90;;;;;;5094278;28;20012;-76
2022/11/23 02:12:11;;;;;;;;;;;7.70;99.90;;;;;;5094222;28;19915;-77
2022/11/23 02:14:37;;;;;;;;;;;7.80;99.90;;;;;;5094059;28;19923;-76
2022/11/23 02:17:03;;;;;;;;;;;7.70;99.90;;;;;;5094240;28;20002;-77
2022/11/23 02:19:55;;;;;;;;;;;7.80;99.90;;;;;;5094520;28;19908;-77
2022/11/23 02:22:44;;;;;;;;;;;7.70;99.90;;;;;;5091925;28;20369;-77
2022/11/23 02:25:14;;;;;;;;;;;7.70;99.90;;;;;;5074417;28;20311;-78
2022/11/23 02:27:40;;;;;;;;;;;7.60;99.90;;;;;;5093915;28;20400;-77
2022/11/23 02:30:06;;;;;;;;;;;7.60;99.90;;;;;;5094124;28;19999;-76
2022/11/23 02:32:33;;;;;;;;;;;7.50;99.90;;;;;;5109834;28;19951;-77
2022/11/23 02:34:58;;;;;;;;;;;7.50;99.90;;;;;;5093833;28;19922;-77
2022/11/23 02:37:24;;;;;;;;;;;7.40;99.90;;;;;;5094125;28;19908;-76
2022/11/23 02:39:50;;;;;;;;;;;7.40;99.90;;;;;;5093483;28;19915;-74
2022/11/23 02:42:16;;;;;;;;;;;7.40;99.90;;;;;;5093880;28;20447;-74
2022/11/23 02:44:45;;;;;;;;;;;7.40;99.90;;;;;;5093544;28;20351;-74
2022/11/23 02:47:10;;;;;;;;;;;7.50;99.90;;;;;;5093813;28;19977;-74
2022/11/23 02:49:36;;;;;;;;;;;7.60;99.90;;;;;;5093391;28;20353;-74
2022/11/23 02:52:02;;;;;;;;;;;7.60;99.90;;;;;;5093550;28;20369;-74
2022/11/23 02:54:28;;;;;;;;;;;7.70;99.90;;;;;;5093246;28;20391;-73
2022/11/23 02:56:54;;;;;;;;;;;7.80;99.90;;;;;;5093372;28;19991;-74
2022/11/23 02:59:19;;;;;;;;;;;7.80;99.90;;;;;;5093586;28;19912;-74
2022/11/23 03:01:46;;;;;;;;;;;7.90;99.90;;;;;;5093173;28;20378;-74
2022/11/23 03:04:11;;;;;;;;;;;7.90;99.90;;;;;;5093686;28;19908;-74
2022/11/23 03:06:37;;;;;;;;;;;8.00;99.90;;;;;;5092041;28;19931;-73
2022/11/23 03:09:02;;;;;;;;;;;8.00;99.90;;;;;;5093596;28;20246;-74
2022/11/23 03:11:28;;;;;;;;;;;8.00;99.90;;;;;;5093480;28;20046;-74
2022/11/23 03:13:54;;;;;;;;;;;8.00;99.90;;;;;;5092934;28;19908;-73
2022/11/23 03:16:19;;;;;;;;;;;8.10;99.90;;;;;;5093472;28;19951;-73
2022/11/23 03:18:45;;;;;;;;;;;8.20;99.90;;;;;;5093150;28;19959;-73
2022/11/23 03:21:10;;;;;;;;;;;8.30;99.90;;;;;;5093412;28;20411;-74
2022/11/23 03:23:36;;;;;;;;;;;8.40;99.90;;;;;;5092927;28;19912;-74
2022/11/23 03:26:02;;;;;;;;;;;8.40;99.90;;;;;;5093064;28;19958;-74
2022/11/23 03:28:28;;;;;;;;;;;8.50;99.90;;;;;;5093328;28;19908;-74
2022/11/23 03:30:53;;;;;;;;;;;8.70;99.90;;;;;;5092868;28;19915;-73
2022/11/23 03:33:19;;;;;;;;;;;8.70;99.90;;;;;;5093353;28;20392;-75
2022/11/23 03:35:44;;;;;;;;;;;8.80;99.90;;;;;;5092608;28;19947;-74
2022/11/23 03:38:10;;;;;;;;;;;8.80;99.90;;;;;;5093214;28;19912;-75
2022/11/23 03:40:36;;;;;;;;;;;9.00;99.90;;;;;;5093566;28;20011;-76
2022/11/23 03:43:02;;;;;;;;;;;9.00;99.90;;;;;;5092975;28;20350;-75
2022/11/23 03:45:27;;;;;;;;;;;9.00;99.90;;;;;;5109044;28;20018;-76
2022/11/23 03:47:53;;;;;;;;;;;9.00;99.90;;;;;;5092507;28;19971;-75
2022/11/23 03:50:18;;;;;;;;;;;8.90;99.90;;;;;;5093422;28;20416;-75
2022/11/23 03:52:44;;;;;;;;;;;9.00;99.90;;;;;;5092350;28;19912;-75
2022/11/23 03:55:09;;;;;;;;;;;9.00;99.90;;;;;;5093063;28;19927;-75
2022/11/23 03:57:35;;;;;;;;;;;9.00;99.90;;;;;;5092843;28;19954;-76
2022/11/23 04:00:01;;;;;;;;;;;9.10;99.90;;;;;;5092306;28;19912;-75
2022/11/23 04:02:26;;;;;;;;;;;9.10;99.90;;;;;;5074789;28;19912;-74
2022/11/23 04:04:52;;;;;;;;;;;9.10;99.90;;;;;;5092351;28;19908;-74
2022/11/23 04:07:18;;;;;;;;;;;9.20;99.90;;;;;;5093014;28;19916;-75
2022/11/23 04:09:43;;;;;;;;;;;9.20;99.90;;;;;;5092373;28;19916;-75
2022/11/23 04:12:09;;;;;;;;;;;9.20;99.90;;;;;;5092918;28;19908;-75
2022/11/23 04:14:34;;;;;;;;;;;9.30;99.90;;;;;;5092860;28;19927;-75
2022/11/23 04:17:03;;;;;;;;;;;9.30;99.90;;;;;;5093901;28;19904;-76
2022/11/23 04:19:29;;;;;;;;;;;9.20;99.90;;;;;;5096644;28;19915;-75
2022/11/23 04:21:54;;;;;;;;;;;9.30;99.90;;;;;;5096596;28;20250;-76
2022/11/23 04:24:20;;;;;;;;;;;9.40;99.90;;;;;;5078373;28;20268;-78
2022/11/23 04:26:45;;;;;;;;;;;9.40;99.90;;;;;;5077824;28;19908;-80
2022/11/23 04:29:11;;;;;;;;;;;9.60;99.90;;;;;;5096341;28;20391;-79
2022/11/23 04:31:37;;;;;;;;;;;9.40;99.90;;;;;;5096852;28;19962;-77
2022/11/23 04:34:02;;;;;;;;;;;9.20;99.90;;;;;;5096093;28;19909;-76
2022/11/23 04:36:28;;;;;;;;;;;9.00;99.90;;;;;;5078038;28;20015;-75
2022/11/23 04:38:54;;;;;;;;;;;8.80;99.90;;;;;;5096006;28;20468;-74
2022/11/23 04:41:19;;;;;;;;;;;8.70;99.90;;;;;;5111855;28;19909;-75
2022/11/23 04:43:48;;;;;;;;;;;8.60;99.90;;;;;;5095717;28;20273;-74
2022/11/23 04:46:14;;;;;;;;;;;8.50;99.90;;;;;;5096198;28;19967;-75
2022/11/23 04:48:40;;;;;;;;;;;8.40;99.90;;;;;;5095982;28;20004;-75
2022/11/23 04:51:06;;;;;;;;;;;8.40;99.90;;;;;;5096076;28;19908;-75
2022/11/23 04:53:31;;;;;;;;;;;8.40;99.90;;;;;;5095805;28;19908;-75
2022/11/23 04:55:57;;;;;;;;;;;8.40;99.90;;;;;;5095566;28;19926;-75
2022/11/23 04:58:22;;;;;;;;;;;8.40;99.90;;;;;;5096447;28;19908;-75
2022/11/23 05:00:48;;;;;;;;;;;8.30;99.90;;;;;;5095627;28;19947;-75
2022/11/23 05:03:14;;;;;;;;;;;8.30;99.90;;;;;;5095375;28;19912;-75
2022/11/23 05:05:39;;;;;;;;;;;8.30;99.90;;;;;;5095643;28;19908;-75
2022/11/23 05:08:06;;;;;;;;;;;8.30;99.90;;;;;;5095457;28;19908;-74
2022/11/23 05:10:31;;;;;;;;;;;8.30;99.90;;;;;;5095723;28;20007;-75
2022/11/23 05:12:57;;;;;;;;;;;8.30;99.90;;;;;;5095102;28;19939;-75
2022/11/23 05:15:23;;;;;;;;;;;8.30;99.90;;;;;;5095479;28;19916;-75
2022/11/23 05:17:48;;;;;;;;;;;8.20;99.90;;;;;;5095174;28;20234;-75
2022/11/23 05:20:14;;;;;;;;;;;8.20;99.90;;;;;;5095039;28;19908;-75
2022/11/23 05:22:39;;;;;;;;;;;8.20;99.90;;;;;;5095101;28;19916;-74
2022/11/23 05:25:05;;;;;;;;;;;8.20;99.90;;;;;;5095040;28;19904;-75
2022/11/23 05:27:31;;;;;;;;;;;8.10;99.90;;;;;;5095407;28;19908;-75
2022/11/23 05:29:56;;;;;;;;;;;8.10;99.90;;;;;;5093916;28;20268;-74
2022/11/23 05:32:22;;;;;;;;;;;8.10;99.90;;;;;;5095601;28;19908;-74
2022/11/23 05:34:48;;;;;;;;;;;8.10;99.90;;;;;;5094799;28;19916;-75
2022/11/23 05:37:14;;;;;;;;;;;8.10;99.90;;;;;;5095239;28;19970;-75
2022/11/23 05:39:40;;;;;;;;;;;8.10;99.90;;;;;;5095078;28;19908;-74
2022/11/23 05:42:05;;;;;;;;;;;8.00;99.90;;;;;;5094740;28;19911;-75
2022/11/23 05:44:31;;;;;;;;;;;8.00;99.90;;;;;;5094776;28;19962;-74
2022/11/23 05:46:56;;;;;;;;;;;8.00;99.90;;;;;;5094906;28;19912;-74
2022/11/23 05:49:22;;;;;;;;;;;8.00;99.90;;;;;;5094761;28;19977;-74
2022/11/23 05:51:48;;;;;;;;;;;8.00;99.90;;;;;;5094404;28;19915;-75
2022/11/23 05:54:13;;;;;;;;;;;8.00;99.90;;;;;;5094670;28;19920;-74
2022/11/23 05:56:39;;;;;;;;;;;8.00;99.90;;;;;;5094512;28;19920;-74
2022/11/23 05:59:05;;;;;;;;;;;7.90;99.90;;;;;;5094378;28;19908;-75
2022/11/23 06:01:31;;;;;;;;;;;7.90;99.90;;;;;;5094701;28;19969;-74
2022/11/23 06:03:57;;;;;;;;;;;7.90;99.90;;;;;;5093900;28;19912;-75
2022/11/23 06:06:22;;;;;;;;;;;7.90;99.90;;;;;;5094636;28;19908;-75
2022/11/23 06:08:48;;;;;;;;;;;7.90;99.90;;;;;;5094037;28;19908;-74
2022/11/23 06:11:14;;;;;;;;;;;7.90;99.90;;;;;;5094251;28;19955;-74
2022/11/23 06:13:40;;;;;;;;;;;7.90;99.90;;;;;;5094368;28;19908;-75
2022/11/23 06:16:05;;;;;;;;;;;7.90;99.90;;;;;;5093974;28;19916;-75
2022/11/23 06:18:31;;;;;;;;;;;7.90;99.90;;;;;;5094437;28;19908;-75
2022/11/23 06:21:00;;;;;;;;;;;7.90;99.90;;;;;;5093982;28;20006;-75
2022/11/23 06:23:25;;;;;;;;;;;7.90;99.90;;;;;;5094457;28;19908;-74
2022/11/23 06:25:51;;;;;;;;;;;7.80;99.90;;;;;;5093963;28;20368;-74
2022/11/23 06:28:16;;;;;;;;;;;7.80;99.90;;;;;;5094467;28;20357;-74
2022/11/23 06:30:42;;;;;;;;;;;7.80;99.90;;;;;;5093955;28;19909;-75
2022/11/23 06:33:08;;;;;;;;;;;7.70;99.90;;;;;;5093284;28;19908;-75
2022/11/23 06:35:34;;;;;;;;;;;7.70;99.90;;;;;;5093972;28;20384;-75
2022/11/23 06:37:59;;;;;;;;;;;7.60;99.90;;;;;;5093373;28;19973;-74
2022/11/23 06:40:25;;;;;;;;;;;7.60;99.90;;;;;;5094050;28;20372;-75
2022/11/23 06:42:52;;;;;;;;;;;7.60;99.90;;;;;;5093628;28;19908;-74
2022/11/23 06:45:18;;;;;;;;;;;7.60;99.90;;;;;;5093667;28;19961;-74
2022/11/23 06:47:43;;;;;;;;;;;7.50;99.90;;;;;;5094204;28;20013;-74
2022/11/23 06:50:09;;;;;;;;;;;7.50;99.90;;;;;;5093437;28;19908;-74
2022/11/23 06:52:35;;;;;;;;;;;7.40;99.90;;;;;;5093900;28;19908;-74
2022/11/23 06:55:00;;;;;;;;;;;7.50;99.90;;;;;;5092849;28;19927;-74
2022/11/23 06:57:26;;;;;;;;;;;7.40;99.90;;;;;;5075712;28;20007;-74
2022/11/23 06:59:51;;;;;;;;;;;7.40;99.90;;;;;;5093203;28;19931;-74
2022/11/23 07:02:17;;;;;;;;;;;7.40;99.90;;;;;;5093384;28;19931;-73
2022/11/23 07:04:42;;;;;;;;;;;7.40;99.90;;;;;;5093499;28;19915;-74
2022/11/23 07:07:08;;;;;;;;;;;7.40;99.90;;;;;;5093094;28;19969;-74
2022/11/23 07:09:34;;;;;;;;;;;7.40;99.90;;;;;;5093767;28;19912;-73
2022/11/23 07:12:00;;;;;;;;;;;7.30;99.90;;;;;;5092819;28;19912;-74
2022/11/23 07:14:25;;;;;;;;;;;7.30;99.90;;;;;;5093444;28;19908;-73
2022/11/23 07:16:51;;;;;;;;;;;7.30;99.90;;;;;;5093029;28;19914;-74
2022/11/23 07:19:16;;;;;;;;;;;7.30;99.90;;;;;;5092686;28;19915;-74
2022/11/23 07:21:43;;;;;;;;;;;7.20;99.90;;;;;;5093482;28;19915;-74
2022/11/23 07:24:09;;;;;;;;;;;7.20;99.90;;;;;;5092857;28;19958;-73
2022/11/23 07:26:34;;;;;;;;;;;7.20;99.90;;;;;;5093197;28;19909;-74
2022/11/23 07:29:00;;;;;;;;;;;7.20;99.90;;;;;;5092434;28;19908;-74
2022/11/23 07:31:25;;;;;;;;;;;7.20;99.90;;;;;;5092822;28;19909;-73
2022/11/23 07:33:52;;;;;;;;;;;7.20;99.90;;;;;;5074961;28;19915;-74
2022/11/23 07:36:18;;;;;;;;;;;7.20;99.90;;;;;;5092972;28;19959;-74
2022/11/23 07:38:43;;;;;;;;;;;7.20;99.90;;;;;;5093660;28;20312;-74
2022/11/23 07:41:09;;;;;;;;;;;7.20;99.90;;;;;;5092777;28;20315;-74
2022/11/23 07:43:34;;;;;;;;;;;7.20;99.90;;;;;;5093040;28;19909;-74
2022/11/23 07:46:00;;;;;;;;;;;7.20;99.90;;;;;;5092370;28;19958;-73
2022/11/23 07:48:25;;;;;;;;;;;7.20;99.90;;;;;;5092529;28;19910;-74
2022/11/23 07:50:52;;;;;;;;;;;7.20;99.90;;;;;;5092995;28;20004;-74
2022/11/23 07:53:18;;;;;;;;;;;7.20;99.90;;;;;;5096201;28;20261;-74
2022/11/23 07:55:43;;;;;;;;;;;7.30;99.90;;;;;;5097008;28;19920;-74
2022/11/23 07:58:09;;;;;;;;;;;7.20;99.90;;;;;;5078451;28;19908;-74
2022/11/23 08:00:35;;;;;;;;;;;7.20;99.90;;;;;;5078355;28;20003;-74
2022/11/23 08:03:01;;;;;;;;;;;7.20;99.90;;;;;;5078338;28;19908;-74
2022/11/23 08:05:27;;;;;;;;;;;7.30;99.90;;;;;;5096858;28;20284;-74
2022/11/23 08:07:59;;;;;;;;;;;7.20;99.90;;;;;;5096723;28;20408;-74
2022/11/23 08:10:26;;;;;;;;;;;7.20;99.90;;;;;;5078460;28;20277;-74
2022/11/23 08:12:52;;;;;;;;;;;7.20;99.90;;;;;;5096369;28;19914;-73
2022/11/23 08:15:17;;;;;;;;;;;7.30;99.90;;;;;;5096004;28;20003;-73
2022/11/23 08:17:43;;;;;;;;;;;7.30;99.90;;;;;;5096339;28;19912;-74
2022/11/23 08:20:08;;;;;;;;;;;7.20;99.90;;;;;;5096112;28;20265;-74
2022/11/23 08:22:34;;;;;;;;;;;7.20;99.90;;;;;;5096110;28;19908;-74
2022/11/23 08:25:00;;;;;;;;;;;7.20;99.90;;;;;;5096297;28;19912;-74
2022/11/23 08:27:25;;;;;;;;;;;7.20;99.90;;;;;;5096487;28;19998;-73
2022/11/23 08:29:51;;;;;;;;;;;7.20;99.90;;;;;;5096475;28;19915;-73
2022/11/23 08:32:16;;;;;;;;;;;7.30;99.90;;;;;;5095816;28;19912;-73
2022/11/23 08:34:43;;;;;;;;;;;7.30;99.90;;;;;;5095862;28;20016;-73
2022/11/23 08:37:09;;;;;;;;;;;7.40;99.90;;;;;;5095726;28;19908;-74
2022/11/23 08:39:34;;;;;;;;;;;7.50;99.90;;;;;;5096018;28;19908;-74
2022/11/23 08:42:00;;;;;;;;;;;7.50;99.90;;;;;;5077449;28;19915;-74
2022/11/23 08:44:25;;;;;;;;;;;7.50;99.90;;;;;;5096143;28;19908;-73
2022/11/23 08:46:51;;;;;;;;;;;7.60;99.90;;;;;;5095695;28;19912;-74
2022/11/23 08:49:16;;;;;;;;;;;7.60;99.90;;;;;;5095444;28;19912;-73
2022/11/23 08:51:42;;;;;;;;;;;7.60;99.90;;;;;;5096237;28;19915;-72
2022/11/23 08:54:07;;;;;;;;;;;7.60;99.90;;;;;;5095769;28;19915;-72
2022/11/23 08:56:33;;;;;;;;;;;7.60;99.90;;;;;;5096018;28;19923;-74
2022/11/23 08:58:59;;;;;;;;;;;7.70;99.90;;;;;;5095970;28;19908;-75
2022/11/23 09:01:24;;;;;;;;;;;7.80;99.90;;;;;;5095697;28;19908;-75
2022/11/23 09:03:50;;;;;;;;;;;7.80;99.90;;;;;;5076394;28;19930;-75
2022/11/23 09:06:16;;;;;;;;;;;7.80;99.90;;;;;;5077250;28;19909;-74
2022/11/23 09:08:41;;;;;;;;;;;7.80;99.90;;;;;;5096128;28;20338;-74
2022/11/23 09:11:09;;;;;;;;;;;7.80;99.90;;;;;;5094897;28;19912;-74
2022/11/23 09:13:36;;;;;;;;;;;7.80;99.90;;;;;;5095714;28;19908;-74
2022/11/23 09:16:01;;;;;;;;;;;7.90;99.90;;;;;;5095267;28;19916;-74
2022/11/23 09:18:29;;;;;;;;;;;8.00;99.90;;;;;;5095090;28;20258;-74
2022/11/23 09:20:55;;;;;;;;;;;7.90;99.90;;;;;;5095603;28;20345;-75
2022/11/23 09:23:21;;;;;;;;;;;7.90;99.90;;;;;;5095098;28;19950;-73
2022/11/23 09:25:48;;;;;;;;;;;7.90;99.90;;;;;;5095484;28;19912;-75
2022/11/23 09:28:18;;;;;;;;;;;7.90;99.90;;;;;;5095326;28;19909;-75
2022/11/23 09:30:45;;;;;;;;;;;8.00;99.90;;;;;;5095360;28;20261;-75
2022/11/23 09:33:11;;;;;;;;;;;8.00;99.90;;;;;;5094760;28;20003;-75
2022/11/23 09:35:36;;;;;;;;;;;8.00;99.90;;;;;;5077073;28;20283;-75
2022/11/23 09:38:02;;;;;;;;;;;8.00;99.90;;;;;;5095024;28;19908;-75
2022/11/23 09:40:30;;;;;;;;;;;7.90;99.90;;;;;;5094775;28;19944;-75
2022/11/23 09:43:18;;;;;;;;;;;7.90;99.90;;;;;;5110930;28;19914;-75
2022/11/23 09:45:47;;;;;;;;;;;8.00;99.90;;;;;;5089088;28;19908;-75
2022/11/23 09:48:18;;;;;;;;;;;8.00;99.90;;;;;;5094469;28;19951;-74
2022/11/23 09:50:59;;;;;;;;;;;8.00;99.90;;;;;;5095066;28;19961;-75
2022/11/23 09:53:31;;;;;;;;;;;8.00;99.90;;;;;;5094449;28;19944;-75
2022/11/23 09:55:56;;;;;;;;;;;8.00;99.90;;;;;;5094820;28;20003;-75
2022/11/23 09:58:24;;;;;;;;;;;8.10;99.90;;;;;;5094243;28;19942;-75
2022/11/23 10:00:54;;;;;;;;;;;8.10;99.90;;;;;;5094795;28;19912;-74
2022/11/23 10:03:20;;;;;;;;;;;8.10;99.90;;;;;;5094597;28;19947;-74
2022/11/23 10:05:55;;;;;;;;;;;8.10;99.90;;;;;;5094936;28;19966;-73
2022/11/23 10:08:27;;;;;;;;;;;8.10;99.90;;;;;;5094354;28;20369;-73
2022/11/23 10:11:00;;;;;;;;;;;8.10;99.90;;;;;;5094307;28;20361;-73
2022/11/23 10:13:32;;;;;;;;;;;8.20;99.90;;;;;;5094195;28;19932;-73
2022/11/23 10:16:13;;;;;;;;;;;8.20;99.90;;;;;;5094267;28;19920;-73
2022/11/23 10:18:54;;;;;;;;;;;8.20;99.90;;;;;;5094537;28;19961;-73
2022/11/23 10:21:28;;;;;;;;;;;8.30;99.90;;;;;;5094032;28;19908;-73
2022/11/23 10:23:55;;;;;;;;;;;8.30;99.90;;;;;;5094427;28;19908;-74
2022/11/23 10:26:33;;;;;;;;;;;8.30;99.90;;;;;;5075624;28;19908;-73
2022/11/23 10:29:08;;;;;;;;;;;8.30;99.90;;;;;;5094300;28;20439;-74
2022/11/23 10:31:34;;;;;;;;;;;8.30;99.90;;;;;;5093999;28;19931;-73
2022/11/23 10:34:07;;;;;;;;;;;8.30;99.90;;;;;;5094167;28;19915;-73
2022/11/23 10:36:36;;;;;;;;;;;8.30;99.90;;;;;;5094147;28;20364;-73
2022/11/23 10:39:08;;;;;;;;;;;8.30;99.90;;;;;;5109711;28;20006;-73
2022/11/23 10:41:33;;;;;;;;;;;8.30;99.90;;;;;;5093596;28;19908;-73
2022/11/23 10:44:11;;;;;;;;;;;8.40;99.90;;;;;;5093751;28;19915;-73
2022/11/23 10:46:38;;;;;;;;;;;8.40;99.90;;;;;;5075744;28;19912;-73
2022/11/23 10:49:16;;;;;;;;;;;8.50;99.90;;;;;;5109508;28;20269;-73
2022/11/23 10:51:55;;;;;;;;;;;8.50;99.90;;;;;;5093819;28;20273;-73
2022/11/23 10:54:25;;;;;;;;;;;8.50;99.90;;;;;;5092894;28;19920;-73
2022/11/23 10:56:51;;;;;;;;;;;8.60;99.90;;;;;;5093586;28;19917;-73
2022/11/23 10:59:37;;;;;;;;;;;8.60;99.90;;;;;;5093172;28;20294;-73
2022/11/23 11:02:19;;;;;;;;;;;8.50;99.90;;;;;;5093539;28;20357;-73
2022/11/23 11:04:45;;;;;;;;;;;8.50;99.90;;;;;;5075423;28;19995;-73
2022/11/23 11:07:16;;;;;;;;;;;8.60;99.90;;;;;;5074929;28;20361;-73
2022/11/23 11:09:47;;;;;;;;;;;8.60;99.90;;;;;;5093575;28;20010;-73
2022/11/23 11:12:19;;;;;;;;;;;8.60;99.90;;;;;;5093100;28;19994;-74
2022/11/23 11:15:01;;;;;;;;;;;8.60;99.90;;;;;;5109371;28;20270;-74
2022/11/23 11:17:31;;;;;;;;;;;8.60;99.90;;;;;;5093068;28;19912;-74
2022/11/23 11:19:57;;;;;;;;;;;8.70;99.90;;;;;;5093323;28;19912;-73
2022/11/23 11:22:33;;;;;;;;;;;8.60;99.90;;;;;;5092720;28;19916;-74
2022/11/23 11:24:59;;;;;;;;;;;8.60;99.90;;;;;;5093385;28;19908;-73
2022/11/23 11:27:27;;;;;;;;;;;8.70;99.90;;;;;;5091954;28;20368;-73
2022/11/23 11:29:54;;;;;;;;;;;8.70;99.90;;;;;;5093055;28;19951;-73
2022/11/23 11:32:22;;;;;;;;;;;8.60;99.90;;;;;;5092810;28;20392;-73
2022/11/23 11:34:48;;;;;;;;;;;8.60;99.90;;;;;;5093184;28;20010;-73
2022/11/23 11:37:32;;;;;;;;;;;8.70;99.90;;;;;;5092439;28;20407;-73
2022/11/23 11:40:18;;;;;;;;;;;8.80;99.90;;;;;;5093409;28;20252;-74
2022/11/23 11:42:47;;;;;;;;;;;8.80;99.90;;;;;;5085318;28;19908;-74
2022/11/23 11:45:18;;;;;;;;;;;8.90;99.90;;;;;;5092346;28;19908;-74
2022/11/23 11:47:51;;;;;;;;;;;8.80;99.90;;;;;;5092959;28;20293;-74
2022/11/23 11:50:22;;;;;;;;;;;8.80;99.90;;;;;;5092678;28;20000;-74
2022/11/23 11:52:49;;;;;;;;;;;8.80;99.90;;;;;;5092833;28;19912;-74
2022/11/23 11:55:21;;;;;;;;;;;8.70;99.90;;;;;;5092097;28;19924;-74
2022/11/23 11:58:01;;;;;;;;;;;8.70;99.90;;;;;;5093035;28;19951;-74
2022/11/23 12:00:29;;;;;;;;;;;8.70;99.90;;;;;;5092578;28;19958;-74
2022/11/23 12:02:58;;;;;;;;;;;8.80;99.90;;;;;;5093003;28;19908;-74
2022/11/23 12:05:26;;;;;;;;;;;8.90;99.90;;;;;;5074362;28;19931;-74
2022/11/23 12:08:03;;;;;;;;;;;9.10;99.90;;;;;;5093024;28;19995;-74
2022/11/23 12:10:52;;;;;;;;;;;9.10;99.90;;;;;;5092085;28;19908;-74
2022/11/23 12:13:20;;;;;;;;;;;9.20;99.90;;;;;;5086516;28;20315;-75
2022/11/23 12:15:49;;;;;;;;;;;9.30;99.90;;;;;;5092822;28;19969;-74
2022/11/23 12:18:33;;;;;;;;;;;9.40;99.90;;;;;;5091991;28;20281;-74
2022/11/23 12:20:59;;;;;;;;;;;9.50;99.90;;;;;;5092460;28;19908;-74
2022/11/23 12:23:43;;;;;;;;;;;9.50;99.90;;;;;;5091749;28;19961;-73
2022/11/23 12:26:25;;;;;;;;;;;9.50;99.90;;;;;;5092238;28;20276;-73
2022/11/23 12:28:54;;;;;;;;;;;9.50;99.90;;;;;;5093096;28;19951;-73
2022/11/23 12:31:32;;;;;;;;;;;9.50;99.90;;;;;;5074182;28;20361;-73
2022/11/23 12:34:17;;;;;;;;;;;9.50;99.90;;;;;;5092560;28;20066;-73
2022/11/23 12:36:58;;;;;;;;;;;9.50;99.90;;;;;;5092710;28;19916;-73
2022/11/23 12:39:27;;;;;;;;;;;9.60;99.90;;;;;;5095456;28;20009;-73
2022/11/23 12:42:08;;;;;;;;;;;9.50;99.90;;;;;;5096366;28;19908;-73
2022/11/23 12:44:47;;;;;;;;;;;9.50;99.90;;;;;;5095770;28;19944;-73
2022/11/23 12:47:19;;;;;;;;;;;9.50;99.90;;;;;;5096155;28;20044;-73
2022/11/23 12:49:57;;;;;;;;;;;9.40;99.90;;;;;;5096142;28;19908;-73
2022/11/23 12:52:28;;;;;;;;;;;9.40;99.90;;;;;;5095637;28;20222;-74
2022/11/23 12:55:06;;;;;;;;;;;9.40;99.90;;;;;;5095710;28;20365;-74
2022/11/23 12:57:31;;;;;;;;;;;9.40;99.90;;;;;;5095349;28;19912;-74
2022/11/23 13:00:04;;;;;;;;;;;9.40;99.90;;;;;;5094686;28;21372;-75
2022/11/23 13:02:49;;;;;;;;;;;9.50;99.90;;;;;;5095635;28;19908;-74
2022/11/23 13:05:20;;;;;;;;;;;9.40;99.90;;;;;;5095474;28;19908;-75
2022/11/23 13:08:04;;;;;;;;;;;9.40;99.90;;;;;;5095501;28;19908;-74
2022/11/23 13:10:35;;;;;;;;;;;9.40;99.90;;;;;;5095119;28;20002;-75
2022/11/23 13:13:27;;;;;;;;;;;9.30;99.90;;;;;;5095578;28;19908;-74
2022/11/23 13:15:58;;;;;;;;;;;9.40;99.90;;;;;;5106148;28;19912;-74
2022/11/23 13:18:43;;;;;;;;;;;9.40;99.90;;;;;;5095098;28;19915;-74
2022/11/23 13:21:15;;;;;;;;;;;9.40;99.90;;;;;;5095527;28;19954;-74
2022/11/23 13:23:40;;;;;;;;;;;9.40;99.90;;;;;;5095042;28;20345;-75
2022/11/23 13:26:12;;;;;;;;;;;9.30;99.90;;;;;;5095576;28;19915;-74
2022/11/23 13:28:38;;;;;;;;;;;9.20;99.90;;;;;;5094990;28;19904;-75
2022/11/23 13:31:18;;;;;;;;;;;9.20;99.90;;;;;;5095243;28;20272;-74
2022/11/23 13:33:48;;;;;;;;;;;9.10;99.90;;;;;;5094954;28;20443;-74
2022/11/23 13:36:28;;;;;;;;;;;9.10;99.90;;;;;;5095169;28;19912;-75
2022/11/23 13:38:55;;;;;;;;;;;9.20;99.90;;;;;;5095102;28;19912;-74
2022/11/23 13:41:32;;;;;;;;;;;9.30;99.90;;;;;;5094670;28;19984;-74
2022/11/23 13:44:09;;;;;;;;;;;9.40;99.90;;;;;;5095288;28;20336;-74
2022/11/23 13:46:35;;;;;;;;;;;9.50;99.90;;;;;;5094713;28;19915;-74
2022/11/23 13:49:01;;;;;;;;;;;9.50;99.90;;;;;;5094240;28;19908;-74
2022/11/23 13:51:27;;;;;;;;;;;9.50;99.90;;;;;;5094508;28;19912;-74
2022/11/23 13:53:56;;;;;;;;;;;9.60;99.90;;;;;;5094772;28;19909;-74
2022/11/23 13:56:22;;;;;;;;;;;9.50;99.90;;;;;;5094452;28;20376;-74
2022/11/23 13:59:10;;;;;;;;;;;9.50;99.90;;;;;;5094491;28;20333;-75
2022/11/23 14:01:55;;;;;;;;;;;9.60;99.90;;;;;;5094333;28;19908;-75
2022/11/23 14:04:30;;;;;;;;;;;9.70;99.90;;;;;;5094480;28;20024;-74
2022/11/23 14:06:57;;;;;;;;;;;9.80;99.90;;;;;;5094591;28;20003;-74
2022/11/23 14:09:43;;;;;;;;;;;9.80;99.90;;;;;;5094292;28;20341;-74
2022/11/23 14:12:30;;;;;;;;;;;9.80;99.90;;;;;;5094216;28;19908;-75
2022/11/23 14:15:14;;;;;;;;;;;9.70;99.90;;;;;;5094474;28;19914;-74
2022/11/23 14:17:46;;;;;;;;;;;9.60;99.90;;;;;;5075776;28;20412;-74
2022/11/23 14:20:34;;;;;;;;;;;9.50;99.90;;;;;;5094050;28;19908;-74
2022/11/23 14:23:00;;;;;;;;;;;9.40;99.90;;;;;;5094076;28;20258;-75
2022/11/23 14:25:32;;;;;;;;;;;9.30;99.90;;;;;;5094008;28;19919;-75
2022/11/23 14:27:58;;;;;;;;;;;9.20;99.90;;;;;;5094378;28;19908;-75
2022/11/23 14:30:42;;;;;;;;;;;9.20;99.90;;;;;;5093497;28;19908;-75
2022/11/23 14:33:33;;;;;;;;;;;9.10;99.90;;;;;;5094226;28;19916;-75
2022/11/23 14:35:59;;;;;;;;;;;9.10;99.90;;;;;;5076086;28;19919;-75
2022/11/23 14:38:27;;;;;;;;;;;9.00;99.90;;;;;;5093518;28;20014;-75
2022/11/23 14:41:04;;;;;;;;;;;9.00;99.90;;;;;;5094057;28;19909;-75